sensor_id;sensor_type;location;lat;lon;timestamp;pressure;altitude;pressure_sealevel;temperature
68939;BMP180;59064;45.294;11.816;2024-01-11T00:00:16;102432.60;;;0.30
68939;BMP180;59064;45.294;11.816;2024-01-11T00:02:42;102429.40;;;0.30
68939;BMP180;59064;45.294;11.816;2024-01-11T00:05:08;102429.00;;;0.24
68939;BMP180;59064;45.294;11.816;2024-01-11T00:07:34;102428.20;;;0.20
68939;BMP180;59064;45.294;11.816;2024-01-11T00:10:01;102428.60;;;0.20
68939;BMP180;59064;45.294;11.816;2024-01-11T00:12:27;102423.80;;;0.24
68939;BMP180;59064;45.294;11.816;2024-01-11T00:14:52;102427.80;;;0.32
68939;BMP180;59064;45.294;11.816;2024-01-11T00:17:18;102423.40;;;0.40
68939;BMP180;59064;45.294;11.816;2024-01-11T00:19:43;102421.00;;;0.40
68939;BMP180;59064;45.294;11.816;2024-01-11T00:22:09;102416.00;;;0.30
68939;BMP180;59064;45.294;11.816;2024-01-11T00:24:36;102411.80;;;0.20
68939;BMP180;59064;45.294;11.816;2024-01-11T00:27:01;102406.60;;;0.20
68939;BMP180;59064;45.294;11.816;2024-01-11T00:29:27;102413.60;;;0.20
68939;BMP180;59064;45.294;11.816;2024-01-11T00:31:54;102410.60;;;0.16
68939;BMP180;59064;45.294;11.816;2024-01-11T00:34:21;102410.00;;;0.18
68939;BMP180;59064;45.294;11.816;2024-01-11T00:36:47;102411.40;;;0.20
68939;BMP180;59064;45.294;11.816;2024-01-11T00:39:12;102414.00;;;0.20
68939;BMP180;59064;45.294;11.816;2024-01-11T00:41:38;102413.80;;;0.20
68939;BMP180;59064;45.294;11.816;2024-01-11T00:44:04;102410.40;;;0.20
68939;BMP180;59064;45.294;11.816;2024-01-11T00:46:29;102409.00;;;0.20
68939;BMP180;59064;45.294;11.816;2024-01-11T00:48:55;102407.20;;;0.20
68939;BMP180;59064;45.294;11.816;2024-01-11T00:51:20;102400.20;;;0.30
68939;BMP180;59064;45.294;11.816;2024-01-11T00:53:46;102402.40;;;0.30
68939;BMP180;59064;45.294;11.816;2024-01-11T00:56:18;102402.80;;;0.20
68939;BMP180;59064;45.294;11.816;2024-01-11T00:58:45;102404.20;;;0.30
68939;BMP180;59064;45.294;11.816;2024-01-11T01:01:11;102403.40;;;0.22
68939;BMP180;59064;45.294;11.816;2024-01-11T01:03:37;102404.20;;;0.26
68939;BMP180;59064;45.294;11.816;2024-01-11T01:06:02;102405.00;;;0.28
68939;BMP180;59064;45.294;11.816;2024-01-11T01:08:28;102405.20;;;0.20
68939;BMP180;59064;45.294;11.816;2024-01-11T01:10:54;102405.80;;;0.12
68939;BMP180;59064;45.294;11.816;2024-01-11T01:13:19;102404.00;;;0.10
68939;BMP180;59064;45.294;11.816;2024-01-11T01:15:45;102400.20;;;0.00
68939;BMP180;59064;45.294;11.816;2024-01-11T01:18:11;102396.60;;;-0.04
68939;BMP180;59064;45.294;11.816;2024-01-11T01:20:36;102399.20;;;-0.10
68939;BMP180;59064;45.294;11.816;2024-01-11T01:23:02;102394.60;;;-0.10
68939;BMP180;59064;45.294;11.816;2024-01-11T01:25:28;102395.40;;;-0.20
68939;BMP180;59064;45.294;11.816;2024-01-11T01:27:53;102396.20;;;-0.20
68939;BMP180;59064;45.294;11.816;2024-01-11T01:30:19;102389.80;;;-0.20
68939;BMP180;59064;45.294;11.816;2024-01-11T01:32:45;102391.00;;;-0.20
68939;BMP180;59064;45.294;11.816;2024-01-11T01:35:10;102387.60;;;-0.20
68939;BMP180;59064;45.294;11.816;2024-01-11T01:37:36;102392.20;;;-0.10
68939;BMP180;59064;45.294;11.816;2024-01-11T01:40:02;102392.00;;;-0.10
68939;BMP180;59064;45.294;11.816;2024-01-11T01:42:28;102393.00;;;0.00
68939;BMP180;59064;45.294;11.816;2024-01-11T01:44:54;102391.20;;;0.00
68939;BMP180;59064;45.294;11.816;2024-01-11T01:47:20;102392.80;;;0.02
68939;BMP180;59064;45.294;11.816;2024-01-11T01:49:48;102391.80;;;0.00
68939;BMP180;59064;45.294;11.816;2024-01-11T01:52:14;102386.60;;;0.00
68939;BMP180;59064;45.294;11.816;2024-01-11T01:54:41;102386.80;;;0.00
68939;BMP180;59064;45.294;11.816;2024-01-11T01:57:09;102386.80;;;0.00
68939;BMP180;59064;45.294;11.816;2024-01-11T01:59:36;102392.40;;;-0.10
68939;BMP180;59064;45.294;11.816;2024-01-11T02:02:04;102391.80;;;-0.10
68939;BMP180;59064;45.294;11.816;2024-01-11T02:04:30;102386.20;;;-0.18
68939;BMP180;59064;45.294;11.816;2024-01-11T02:06:57;102387.60;;;-0.20
68939;BMP180;59064;45.294;11.816;2024-01-11T02:09:24;102392.60;;;-0.20
68939;BMP180;59064;45.294;11.816;2024-01-11T02:11:52;102388.00;;;-0.20
68939;BMP180;59064;45.294;11.816;2024-01-11T02:14:19;102384.20;;;-0.20
68939;BMP180;59064;45.294;11.816;2024-01-11T02:16:45;102384.00;;;-0.20
68939;BMP180;59064;45.294;11.816;2024-01-11T02:19:13;102386.60;;;-0.30
68939;BMP180;59064;45.294;11.816;2024-01-11T02:21:43;102380.80;;;-0.30
68939;BMP180;59064;45.294;11.816;2024-01-11T02:24:10;102375.20;;;-0.30
68939;BMP180;59064;45.294;11.816;2024-01-11T02:26:35;102374.80;;;-0.30
68939;BMP180;59064;45.294;11.816;2024-01-11T02:29:01;102378.40;;;-0.28
68939;BMP180;59064;45.294;11.816;2024-01-11T02:31:27;102379.20;;;-0.26
68939;BMP180;59064;45.294;11.816;2024-01-11T02:33:54;102383.40;;;-0.30
68939;BMP180;59064;45.294;11.816;2024-01-11T02:36:25;102378.20;;;-0.30
68939;BMP180;59064;45.294;11.816;2024-01-11T02:38:51;102374.80;;;-0.30
68939;BMP180;59064;45.294;11.816;2024-01-11T02:41:18;102370.80;;;-0.40
68939;BMP180;59064;45.294;11.816;2024-01-11T02:43:48;102373.20;;;-0.50
68939;BMP180;59064;45.294;11.816;2024-01-11T02:46:15;102364.40;;;-0.60
68939;BMP180;59064;45.294;11.816;2024-01-11T02:48:41;102365.00;;;-0.70
68939;BMP180;59064;45.294;11.816;2024-01-11T02:51:06;102367.00;;;-0.70
68939;BMP180;59064;45.294;11.816;2024-01-11T02:53:32;102360.80;;;-0.80
68939;BMP180;59064;45.294;11.816;2024-01-11T02:56:01;102358.60;;;-0.98
68939;BMP180;59064;45.294;11.816;2024-01-11T02:58:26;102356.20;;;-1.10
68939;BMP180;59064;45.294;11.816;2024-01-11T03:00:52;102355.80;;;-1.20
68939;BMP180;59064;45.294;11.816;2024-01-11T03:03:17;102356.20;;;-1.20
68939;BMP180;59064;45.294;11.816;2024-01-11T03:05:43;102357.00;;;-1.22
68939;BMP180;59064;45.294;11.816;2024-01-11T03:08:08;102351.40;;;-1.22
68939;BMP180;59064;45.294;11.816;2024-01-11T03:10:34;102347.60;;;-1.30
68939;BMP180;59064;45.294;11.816;2024-01-11T03:13:06;102348.00;;;-1.30
68939;BMP180;59064;45.294;11.816;2024-01-11T03:15:32;102347.20;;;-1.30
68939;BMP180;59064;45.294;11.816;2024-01-11T03:17:57;102344.40;;;-1.40
68939;BMP180;59064;45.294;11.816;2024-01-11T03:20:23;102341.40;;;-1.40
68939;BMP180;59064;45.294;11.816;2024-01-11T03:23:02;102347.60;;;-1.50
68939;BMP180;59064;45.294;11.816;2024-01-11T03:25:29;102342.00;;;-1.50
68939;BMP180;59064;45.294;11.816;2024-01-11T03:27:55;102340.80;;;-1.50
68939;BMP180;59064;45.294;11.816;2024-01-11T03:30:20;102339.60;;;-1.60
68939;BMP180;59064;45.294;11.816;2024-01-11T03:32:46;102337.20;;;-1.60
68939;BMP180;59064;45.294;11.816;2024-01-11T03:35:11;102334.20;;;-1.70
68939;BMP180;59064;45.294;11.816;2024-01-11T03:37:37;102339.80;;;-1.70
68939;BMP180;59064;45.294;11.816;2024-01-11T03:40:03;102334.80;;;-1.70
68939;BMP180;59064;45.294;11.816;2024-01-11T03:42:29;102328.80;;;-1.70
68939;BMP180;59064;45.294;11.816;2024-01-11T03:44:54;102329.80;;;-1.70
68939;BMP180;59064;45.294;11.816;2024-01-11T03:47:21;102323.80;;;-1.70
68939;BMP180;59064;45.294;11.816;2024-01-11T03:49:46;102321.80;;;-1.70
68939;BMP180;59064;45.294;11.816;2024-01-11T03:52:12;102323.20;;;-1.70
68939;BMP180;59064;45.294;11.816;2024-01-11T03:54:38;102318.60;;;-1.70
68939;BMP180;59064;45.294;11.816;2024-01-11T03:57:03;102320.80;;;-1.70
68939;BMP180;59064;45.294;11.816;2024-01-11T03:59:29;102314.60;;;-1.70
68939;BMP180;59064;45.294;11.816;2024-01-11T04:01:57;102310.20;;;-1.60
68939;BMP180;59064;45.294;11.816;2024-01-11T04:04:23;102313.40;;;-1.60
68939;BMP180;59064;45.294;11.816;2024-01-11T04:06:49;102318.80;;;-1.54
68939;BMP180;59064;45.294;11.816;2024-01-11T04:09:15;102314.60;;;-1.50
68939;BMP180;59064;45.294;11.816;2024-01-11T04:11:40;102313.80;;;-1.52
68939;BMP180;59064;45.294;11.816;2024-01-11T04:14:06;102311.20;;;-1.58
68939;BMP180;59064;45.294;11.816;2024-01-11T04:16:32;102315.60;;;-1.60
68939;BMP180;59064;45.294;11.816;2024-01-11T04:18:57;102314.80;;;-1.62
68939;BMP180;59064;45.294;11.816;2024-01-11T04:21:26;102313.60;;;-1.70
68939;BMP180;59064;45.294;11.816;2024-01-11T04:23:56;102312.60;;;-1.74
68939;BMP180;59064;45.294;11.816;2024-01-11T04:26:21;102313.60;;;-1.80
68939;BMP180;59064;45.294;11.816;2024-01-11T04:28:49;102311.80;;;-1.90
68939;BMP180;59064;45.294;11.816;2024-01-11T04:31:14;102313.00;;;-1.98
68939;BMP180;59064;45.294;11.816;2024-01-11T04:33:43;102312.20;;;-2.00
68939;BMP180;59064;45.294;11.816;2024-01-11T04:36:09;102309.20;;;-2.04
68939;BMP180;59064;45.294;11.816;2024-01-11T04:38:35;102307.80;;;-2.10
68939;BMP180;59064;45.294;11.816;2024-01-11T04:41:07;102303.60;;;-2.10
68939;BMP180;59064;45.294;11.816;2024-01-11T04:43:33;102301.80;;;-2.10
68939;BMP180;59064;45.294;11.816;2024-01-11T04:45:58;102298.60;;;-2.20
68939;BMP180;59064;45.294;11.816;2024-01-11T04:48:23;102298.00;;;-2.40
68939;BMP180;59064;45.294;11.816;2024-01-11T04:50:49;102297.20;;;-2.46
68939;BMP180;59064;45.294;11.816;2024-01-11T04:53:15;102297.60;;;-2.50
68939;BMP180;59064;45.294;11.816;2024-01-11T04:55:41;102296.80;;;-2.60
68939;BMP180;59064;45.294;11.816;2024-01-11T04:58:06;102292.40;;;-2.60
68939;BMP180;59064;45.294;11.816;2024-01-11T05:00:32;102292.20;;;-2.60
68939;BMP180;59064;45.294;11.816;2024-01-11T05:02:57;102293.00;;;-2.60
68939;BMP180;59064;45.294;11.816;2024-01-11T05:05:23;102294.20;;;-2.70
68939;BMP180;59064;45.294;11.816;2024-01-11T05:07:48;102293.60;;;-2.62
68939;BMP180;59064;45.294;11.816;2024-01-11T05:10:14;102296.20;;;-2.70
68939;BMP180;59064;45.294;11.816;2024-01-11T05:12:40;102294.00;;;-2.70
68939;BMP180;59064;45.294;11.816;2024-01-11T05:15:06;102290.40;;;-2.70
68939;BMP180;59064;45.294;11.816;2024-01-11T05:17:33;102293.60;;;-2.70
68939;BMP180;59064;45.294;11.816;2024-01-11T05:19:59;102293.80;;;-2.70
68939;BMP180;59064;45.294;11.816;2024-01-11T05:22:24;102289.80;;;-2.72
68939;BMP180;59064;45.294;11.816;2024-01-11T05:24:50;102287.20;;;-2.80
68939;BMP180;59064;45.294;11.816;2024-01-11T05:27:15;102289.00;;;-2.82
68939;BMP180;59064;45.294;11.816;2024-01-11T05:29:41;102289.00;;;-2.80
68939;BMP180;59064;45.294;11.816;2024-01-11T05:32:06;102290.80;;;-2.80
68939;BMP180;59064;45.294;11.816;2024-01-11T05:34:32;102287.20;;;-2.70
68939;BMP180;59064;45.294;11.816;2024-01-11T05:36:57;102293.20;;;-2.60
68939;BMP180;59064;45.294;11.816;2024-01-11T05:39:23;102293.40;;;-2.60
68939;BMP180;59064;45.294;11.816;2024-01-11T05:41:48;102291.60;;;-2.50
68939;BMP180;59064;45.294;11.816;2024-01-11T05:44:14;102290.40;;;-2.50
68939;BMP180;59064;45.294;11.816;2024-01-11T05:46:39;102288.40;;;-2.50
68939;BMP180;59064;45.294;11.816;2024-01-11T05:49:05;102282.40;;;-2.46
68939;BMP180;59064;45.294;11.816;2024-01-11T05:51:31;102283.00;;;-2.40
68939;BMP180;59064;45.294;11.816;2024-01-11T05:53:56;102283.80;;;-2.42
68939;BMP180;59064;45.294;11.816;2024-01-11T05:56:22;102282.80;;;-2.50
68939;BMP180;59064;45.294;11.816;2024-01-11T05:58:47;102285.40;;;-2.50
68939;BMP180;59064;45.294;11.816;2024-01-11T06:01:13;102281.00;;;-2.50
68939;BMP180;59064;45.294;11.816;2024-01-11T06:03:38;102277.80;;;-2.50
68939;BMP180;59064;45.294;11.816;2024-01-11T06:06:05;102271.80;;;-2.50
68939;BMP180;59064;45.294;11.816;2024-01-11T06:08:31;102271.60;;;-2.50
68939;BMP180;59064;45.294;11.816;2024-01-11T06:10:57;102272.80;;;-2.50
68939;BMP180;59064;45.294;11.816;2024-01-11T06:13:23;102271.60;;;-2.52
68939;BMP180;59064;45.294;11.816;2024-01-11T06:15:49;102276.40;;;-2.60
68939;BMP180;59064;45.294;11.816;2024-01-11T06:18:16;102270.80;;;-2.64
68939;BMP180;59064;45.294;11.816;2024-01-11T06:20:41;102272.00;;;-2.70
68939;BMP180;59064;45.294;11.816;2024-01-11T06:23:07;102271.20;;;-2.80
68939;BMP180;59064;45.294;11.816;2024-01-11T06:25:32;102269.20;;;-2.90
68939;BMP180;59064;45.294;11.816;2024-01-11T06:27:59;102268.20;;;-2.90
68939;BMP180;59064;45.294;11.816;2024-01-11T06:30:25;102266.80;;;-2.90
68939;BMP180;59064;45.294;11.816;2024-01-11T06:32:51;102272.00;;;-2.88
68939;BMP180;59064;45.294;11.816;2024-01-11T06:35:16;102268.80;;;-2.80
68939;BMP180;59064;45.294;11.816;2024-01-11T06:37:42;102267.00;;;-2.80
68939;BMP180;59064;45.294;11.816;2024-01-11T06:40:08;102265.60;;;-2.84
68939;BMP180;59064;45.294;11.816;2024-01-11T06:42:34;102267.60;;;-2.86
68939;BMP180;59064;45.294;11.816;2024-01-11T06:44:59;102272.00;;;-2.90
68939;BMP180;59064;45.294;11.816;2024-01-11T06:47:25;102274.20;;;-2.90
68939;BMP180;59064;45.294;11.816;2024-01-11T06:49:51;102268.40;;;-2.94
68939;BMP180;59064;45.294;11.816;2024-01-11T06:52:16;102273.60;;;-3.00
68939;BMP180;59064;45.294;11.816;2024-01-11T06:54:42;102270.20;;;-3.00
68939;BMP180;59064;45.294;11.816;2024-01-11T06:57:07;102274.40;;;-3.00
68939;BMP180;59064;45.294;11.816;2024-01-11T06:59:33;102273.20;;;-3.02
68939;BMP180;59064;45.294;11.816;2024-01-11T07:01:59;102274.40;;;-3.02
68939;BMP180;59064;45.294;11.816;2024-01-11T07:04:24;102271.00;;;-3.00
68939;BMP180;59064;45.294;11.816;2024-01-11T07:06:50;102263.80;;;-3.00
68939;BMP180;59064;45.294;11.816;2024-01-11T07:09:15;102258.80;;;-2.90
68939;BMP180;59064;45.294;11.816;2024-01-11T07:11:43;102260.00;;;-2.90
68939;BMP180;59064;45.294;11.816;2024-01-11T07:14:09;102260.20;;;-2.80
68939;BMP180;59064;45.294;11.816;2024-01-11T07:16:36;102260.40;;;-2.70
68939;BMP180;59064;45.294;11.816;2024-01-11T07:19:01;102265.00;;;-2.54
68939;BMP180;59064;45.294;11.816;2024-01-11T07:21:27;102273.80;;;-2.40
68939;BMP180;59064;45.294;11.816;2024-01-11T07:23:57;102277.00;;;-2.30
68939;BMP180;59064;45.294;11.816;2024-01-11T07:26:23;102271.00;;;-2.20
68939;BMP180;59064;45.294;11.816;2024-01-11T07:28:49;102274.40;;;-2.10
68939;BMP180;59064;45.294;11.816;2024-01-11T07:31:15;102273.00;;;-1.92
68939;BMP180;59064;45.294;11.816;2024-01-11T07:33:41;102271.20;;;-1.80
68939;BMP180;59064;45.294;11.816;2024-01-11T07:36:06;102276.60;;;-1.68
68939;BMP180;59064;45.294;11.816;2024-01-11T07:38:32;102276.60;;;-1.52
68939;BMP180;59064;45.294;11.816;2024-01-11T07:40:58;102276.80;;;-1.42
68939;BMP180;59064;45.294;11.816;2024-01-11T07:43:23;102279.20;;;-1.30
68939;BMP180;59064;45.294;11.816;2024-01-11T07:45:49;102279.60;;;-1.12
68939;BMP180;59064;45.294;11.816;2024-01-11T07:48:15;102280.60;;;-1.00
68939;BMP180;59064;45.294;11.816;2024-01-11T07:50:41;102277.80;;;-0.80
68939;BMP180;59064;45.294;11.816;2024-01-11T07:53:07;102283.40;;;-0.70
68939;BMP180;59064;45.294;11.816;2024-01-11T07:55:32;102284.80;;;-0.60
68939;BMP180;59064;45.294;11.816;2024-01-11T07:57:58;102282.40;;;-0.42
68939;BMP180;59064;45.294;11.816;2024-01-11T08:00:23;102287.80;;;-0.30
68939;BMP180;59064;45.294;11.816;2024-01-11T08:02:49;102290.20;;;-0.10
68939;BMP180;59064;45.294;11.816;2024-01-11T08:05:15;102284.40;;;0.08
68939;BMP180;59064;45.294;11.816;2024-01-11T08:07:40;102284.40;;;0.30
68939;BMP180;59064;45.294;11.816;2024-01-11T08:10:08;102288.80;;;0.50
68939;BMP180;59064;45.294;11.816;2024-01-11T08:12:35;102292.00;;;0.70
68939;BMP180;59064;45.294;11.816;2024-01-11T08:15:01;102286.20;;;1.00
68939;BMP180;59064;45.294;11.816;2024-01-11T08:17:26;102283.00;;;1.28
68939;BMP180;59064;45.294;11.816;2024-01-11T08:19:52;102287.20;;;1.56
68939;BMP180;59064;45.294;11.816;2024-01-11T08:22:17;102287.60;;;1.80
68939;BMP180;59064;45.294;11.816;2024-01-11T08:24:43;102285.40;;;2.00
68939;BMP180;59064;45.294;11.816;2024-01-11T08:27:08;102280.20;;;2.10
68939;BMP180;59064;45.294;11.816;2024-01-11T08:29:34;102282.20;;;2.10
68939;BMP180;59064;45.294;11.816;2024-01-11T08:32:00;102288.20;;;2.20
68939;BMP180;59064;45.294;11.816;2024-01-11T08:34:30;102288.80;;;2.40
68939;BMP180;59064;45.294;11.816;2024-01-11T08:36:55;102287.60;;;2.50
68939;BMP180;59064;45.294;11.816;2024-01-11T08:39:24;102290.80;;;2.54
68939;BMP180;59064;45.294;11.816;2024-01-11T08:41:50;102289.00;;;2.72
68939;BMP180;59064;45.294;11.816;2024-01-11T08:44:15;102292.80;;;2.84
68939;BMP180;59064;45.294;11.816;2024-01-11T08:46:41;102294.60;;;2.90
68939;BMP180;59064;45.294;11.816;2024-01-11T08:49:09;102293.60;;;3.00
68939;BMP180;59064;45.294;11.816;2024-01-11T08:51:35;102298.80;;;3.18
68939;BMP180;59064;45.294;11.816;2024-01-11T08:54:01;102288.40;;;3.32
68939;BMP180;59064;45.294;11.816;2024-01-11T08:56:26;102285.00;;;3.50
68939;BMP180;59064;45.294;11.816;2024-01-11T08:58:53;102287.00;;;3.82
68939;BMP180;59064;45.294;11.816;2024-01-11T09:01:18;102286.60;;;4.00
68939;BMP180;59064;45.294;11.816;2024-01-11T09:03:44;102289.60;;;4.20
68939;BMP180;59064;45.294;11.816;2024-01-11T09:06:10;102284.20;;;4.30
68939;BMP180;59064;45.294;11.816;2024-01-11T09:08:36;102281.00;;;4.58
68939;BMP180;59064;45.294;11.816;2024-01-11T09:11:02;102283.00;;;4.86
68939;BMP180;59064;45.294;11.816;2024-01-11T09:13:28;102284.40;;;5.06
68939;BMP180;59064;45.294;11.816;2024-01-11T09:15:54;102282.20;;;5.28
68939;BMP180;59064;45.294;11.816;2024-01-11T09:18:20;102278.40;;;5.50
68939;BMP180;59064;45.294;11.816;2024-01-11T09:20:47;102276.60;;;5.76
68939;BMP180;59064;45.294;11.816;2024-01-11T09:23:13;102274.80;;;6.10
68939;BMP180;59064;45.294;11.816;2024-01-11T09:25:42;102274.40;;;6.42
68939;BMP180;59064;45.294;11.816;2024-01-11T09:28:07;102274.60;;;6.60
68939;BMP180;59064;45.294;11.816;2024-01-11T09:30:33;102277.20;;;6.72
68939;BMP180;59064;45.294;11.816;2024-01-11T09:32:59;102274.40;;;6.80
68939;BMP180;59064;45.294;11.816;2024-01-11T09:35:25;102273.80;;;7.04
68939;BMP180;59064;45.294;11.816;2024-01-11T09:37:51;102278.80;;;7.32
68939;BMP180;59064;45.294;11.816;2024-01-11T09:40:20;102277.00;;;7.46
68939;BMP180;59064;45.294;11.816;2024-01-11T09:42:46;102278.40;;;7.38
68939;BMP180;59064;45.294;11.816;2024-01-11T09:45:17;102273.80;;;7.10
68939;BMP180;59064;45.294;11.816;2024-01-11T09:47:44;102265.60;;;7.00
68939;BMP180;59064;45.294;11.816;2024-01-11T09:50:15;102267.00;;;6.70
68939;BMP180;59064;45.294;11.816;2024-01-11T09:52:47;102260.40;;;6.60
68939;BMP180;59064;45.294;11.816;2024-01-11T09:55:14;102258.60;;;6.60
68939;BMP180;59064;45.294;11.816;2024-01-11T09:57:43;102252.00;;;6.50
68939;BMP180;59064;45.294;11.816;2024-01-11T10:00:13;102250.80;;;6.50
68939;BMP180;59064;45.294;11.816;2024-01-11T10:02:39;102252.60;;;6.50
68939;BMP180;59064;45.294;11.816;2024-01-11T10:05:05;102252.60;;;6.50
68939;BMP180;59064;45.294;11.816;2024-01-11T10:07:32;102255.00;;;6.30
68939;BMP180;59064;45.294;11.816;2024-01-11T10:09:59;102251.40;;;6.18
68939;BMP180;59064;45.294;11.816;2024-01-11T10:12:27;102246.40;;;6.10
68939;BMP180;59064;45.294;11.816;2024-01-11T10:14:53;102241.40;;;6.00
68939;BMP180;59064;45.294;11.816;2024-01-11T10:17:19;102235.00;;;5.90
68939;BMP180;59064;45.294;11.816;2024-01-11T10:19:45;102237.00;;;5.90
68939;BMP180;59064;45.294;11.816;2024-01-11T10:22:11;102236.20;;;5.90
68939;BMP180;59064;45.294;11.816;2024-01-11T10:24:39;102231.40;;;5.90
68939;BMP180;59064;45.294;11.816;2024-01-11T10:27:04;102228.20;;;5.80
68939;BMP180;59064;45.294;11.816;2024-01-11T10:29:32;102228.00;;;5.70
68939;BMP180;59064;45.294;11.816;2024-01-11T10:31:58;102236.20;;;5.70
68939;BMP180;59064;45.294;11.816;2024-01-11T10:34:24;102232.60;;;5.80
68939;BMP180;59064;45.294;11.816;2024-01-11T10:36:50;102224.80;;;5.92
68939;BMP180;59064;45.294;11.816;2024-01-11T10:39:17;102219.80;;;6.10
68939;BMP180;59064;45.294;11.816;2024-01-11T10:41:52;102220.00;;;6.22
68939;BMP180;59064;45.294;11.816;2024-01-11T10:44:22;102220.40;;;6.30
68939;BMP180;59064;45.294;11.816;2024-01-11T10:46:49;102216.20;;;6.20
68939;BMP180;59064;45.294;11.816;2024-01-11T10:49:18;102210.20;;;6.20
68939;BMP180;59064;45.294;11.816;2024-01-11T10:52:03;102207.40;;;6.20
68939;BMP180;59064;45.294;11.816;2024-01-11T10:54:33;102201.80;;;6.32
68939;BMP180;59064;45.294;11.816;2024-01-11T10:57:00;102200.60;;;6.46
68939;BMP180;59064;45.294;11.816;2024-01-11T10:59:27;102191.60;;;6.60
68939;BMP180;59064;45.294;11.816;2024-01-11T11:01:57;102192.40;;;6.80
68939;BMP180;59064;45.294;11.816;2024-01-11T11:04:24;102189.00;;;6.96
68939;BMP180;59064;45.294;11.816;2024-01-11T11:06:56;102178.40;;;7.06
68939;BMP180;59064;45.294;11.816;2024-01-11T11:09:23;102173.80;;;7.20
68939;BMP180;59064;45.294;11.816;2024-01-11T11:11:55;102173.80;;;7.38
68939;BMP180;59064;45.294;11.816;2024-01-11T11:14:22;102172.40;;;7.40
68939;BMP180;59064;45.294;11.816;2024-01-11T11:16:48;102168.60;;;7.60
68939;BMP180;59064;45.294;11.816;2024-01-11T11:19:14;102164.80;;;7.80
68939;BMP180;59064;45.294;11.816;2024-01-11T11:21:48;102154.60;;;8.02
68939;BMP180;59064;45.294;11.816;2024-01-11T11:24:16;102153.80;;;8.22
68939;BMP180;59064;45.294;11.816;2024-01-11T11:26:42;102145.60;;;8.24
68939;BMP180;59064;45.294;11.816;2024-01-11T11:29:08;102140.40;;;8.56
68939;BMP180;59064;45.294;11.816;2024-01-11T11:31:52;102137.80;;;8.94
68939;BMP180;59064;45.294;11.816;2024-01-11T11:34:40;102138.20;;;9.22
68939;BMP180;59064;45.294;11.816;2024-01-11T11:37:06;102137.00;;;9.50
68939;BMP180;59064;45.294;11.816;2024-01-11T11:39:32;102130.00;;;9.76
68939;BMP180;59064;45.294;11.816;2024-01-11T11:41:58;102122.20;;;9.96
68939;BMP180;59064;45.294;11.816;2024-01-11T11:44:26;102121.80;;;10.10
68939;BMP180;59064;45.294;11.816;2024-01-11T11:46:52;102121.20;;;10.34
68939;BMP180;59064;45.294;11.816;2024-01-11T11:49:18;102118.60;;;10.50
68939;BMP180;59064;45.294;11.816;2024-01-11T11:51:44;102116.80;;;10.70
68939;BMP180;59064;45.294;11.816;2024-01-11T11:54:10;102116.00;;;10.70
68939;BMP180;59064;45.294;11.816;2024-01-11T11:56:36;102107.60;;;10.56
68939;BMP180;59064;45.294;11.816;2024-01-11T11:59:03;102102.60;;;10.40
68939;BMP180;59064;45.294;11.816;2024-01-11T12:01:29;102099.80;;;10.50
68939;BMP180;59064;45.294;11.816;2024-01-11T12:03:57;102094.80;;;10.56
68939;BMP180;59064;45.294;11.816;2024-01-11T12:06:23;102096.00;;;10.60
68939;BMP180;59064;45.294;11.816;2024-01-11T12:08:51;102094.80;;;10.70
68939;BMP180;59064;45.294;11.816;2024-01-11T12:11:19;102087.40;;;10.80
68939;BMP180;59064;45.294;11.816;2024-01-11T12:13:46;102082.40;;;10.88
68939;BMP180;59064;45.294;11.816;2024-01-11T12:16:12;102082.00;;;11.30
68939;BMP180;59064;45.294;11.816;2024-01-11T12:18:38;102079.00;;;11.50
68939;BMP180;59064;45.294;11.816;2024-01-11T12:21:04;102076.00;;;11.68
68939;BMP180;59064;45.294;11.816;2024-01-11T12:23:30;102069.60;;;11.98
68939;BMP180;59064;45.294;11.816;2024-01-11T12:25:57;102072.20;;;12.20
68939;BMP180;59064;45.294;11.816;2024-01-11T12:28:24;102066.00;;;12.30
68939;BMP180;59064;45.294;11.816;2024-01-11T12:30:50;102064.20;;;12.20
68939;BMP180;59064;45.294;11.816;2024-01-11T12:33:16;102057.80;;;12.10
68939;BMP180;59064;45.294;11.816;2024-01-11T12:35:42;102054.40;;;12.10
68939;BMP180;59064;45.294;11.816;2024-01-11T12:38:08;102053.40;;;12.00
68939;BMP180;59064;45.294;11.816;2024-01-11T12:40:37;102057.80;;;12.00
68939;BMP180;59064;45.294;11.816;2024-01-11T12:43:03;102057.00;;;12.00
68939;BMP180;59064;45.294;11.816;2024-01-11T12:45:29;102052.40;;;12.14
68939;BMP180;59064;45.294;11.816;2024-01-11T12:47:58;102052.40;;;12.28
68939;BMP180;59064;45.294;11.816;2024-01-11T12:50:26;102049.40;;;12.40
68939;BMP180;59064;45.294;11.816;2024-01-11T12:53:15;102044.80;;;12.60
68939;BMP180;59064;45.294;11.816;2024-01-11T12:55:48;102043.20;;;12.80
68939;BMP180;59064;45.294;11.816;2024-01-11T12:58:19;102042.00;;;12.64
68939;BMP180;59064;45.294;11.816;2024-01-11T13:00:49;102033.60;;;12.80
68939;BMP180;59064;45.294;11.816;2024-01-11T13:03:15;102033.00;;;12.90
68939;BMP180;59064;45.294;11.816;2024-01-11T13:05:41;102023.80;;;13.10
68939;BMP180;59064;45.294;11.816;2024-01-11T13:08:10;102022.80;;;13.00
68939;BMP180;59064;45.294;11.816;2024-01-11T13:10:36;102017.60;;;13.10
68939;BMP180;59064;45.294;11.816;2024-01-11T13:13:03;102016.40;;;13.00
68939;BMP180;59064;45.294;11.816;2024-01-11T13:15:30;102013.00;;;12.92
68939;BMP180;59064;45.294;11.816;2024-01-11T13:17:57;102014.40;;;13.10
68939;BMP180;59064;45.294;11.816;2024-01-11T13:20:23;102014.20;;;13.30
68939;BMP180;59064;45.294;11.816;2024-01-11T13:22:56;102014.00;;;13.20
68939;BMP180;59064;45.294;11.816;2024-01-11T13:25:35;102010.20;;;13.00
68939;BMP180;59064;45.294;11.816;2024-01-11T13:28:01;102010.60;;;13.10
68939;BMP180;59064;45.294;11.816;2024-01-11T13:30:27;102009.40;;;13.44
68939;BMP180;59064;45.294;11.816;2024-01-11T13:32:52;102001.80;;;13.70
68939;BMP180;59064;45.294;11.816;2024-01-11T13:35:18;101993.60;;;13.70
68939;BMP180;59064;45.294;11.816;2024-01-11T13:37:45;101993.40;;;13.70
68939;BMP180;59064;45.294;11.816;2024-01-11T13:40:11;102000.00;;;13.70
68939;BMP180;59064;45.294;11.816;2024-01-11T13:42:39;101996.40;;;13.80
68939;BMP180;59064;45.294;11.816;2024-01-11T13:45:05;101993.00;;;14.00